createdAt,value
2023-04-15T00:00:25.332Z,67.90
2023-04-15T00:03:28.026Z,68.20
2023-04-15T00:06:30.102Z,67.70
2023-04-15T00:09:32.482Z,68.40
2023-04-15T00:12:34.475Z,69.30
2023-04-15T00:15:37.365Z,69.40
2023-04-15T00:18:39.401Z,68.50
2023-04-15T00:21:41.384Z,68.00
2023-04-15T00:24:43.519Z,68.60
2023-04-15T00:27:47.317Z,68.50
2023-04-15T00:30:50.681Z,69.00
2023-04-15T00:33:52.687Z,69.50
2023-04-15T00:36:54.876Z,69.90
2023-04-15T00:39:56.998Z,69.90
2023-04-15T00:42:59.096Z,68.90
2023-04-15T00:46:01.815Z,69.30
2023-04-15T00:49:04.623Z,68.70
2023-04-15T00:52:06.691Z,68.90
2023-04-15T00:55:09.476Z,69.10
2023-04-15T00:58:11.514Z,70.00
2023-04-15T01:01:13.752Z,70.10
2023-04-15T01:04:16.707Z,70.30
2023-04-15T01:07:19.371Z,70.70
2023-04-15T01:10:21.732Z,70.80
2023-04-15T01:13:24.694Z,70.10
2023-04-15T01:16:26.922Z,69.20
2023-04-15T01:19:29.093Z,70.10
2023-04-15T01:22:33.493Z,71.90
2023-04-15T01:25:35.757Z,73.70
2023-04-15T01:28:37.782Z,73.70
2023-04-15T01:31:40.549Z,72.90
2023-04-15T01:34:42.670Z,72.60
2023-04-15T01:37:45.420Z,72.30
2023-04-15T01:40:47.533Z,72.50
2023-04-15T01:43:49.641Z,72.60
2023-04-15T01:46:51.739Z,72.40
2023-04-15T01:49:55.578Z,72.00
2023-04-15T01:52:57.569Z,72.00
2023-04-15T01:55:59.632Z,71.60
2023-04-15T01:59:04.191Z,71.90
2023-04-15T02:02:06.305Z,71.40
2023-04-15T02:05:08.667Z,70.90
2023-04-15T02:08:12.312Z,72.60
2023-04-15T02:11:14.385Z,73.20
2023-04-15T02:14:16.415Z,73.00
2023-04-15T02:17:18.468Z,73.20
2023-04-15T02:20:20.910Z,73.80
2023-04-15T02:23:27.911Z,73.70
2023-04-15T02:26:29.928Z,73.40
2023-04-15T02:29:32.980Z,73.60
2023-04-15T02:32:36.281Z,73.30
2023-04-15T02:35:38.295Z,73.60
2023-04-15T02:38:40.414Z,74.00
2023-04-15T02:41:43.974Z,73.80
2023-04-15T02:44:47.443Z,73.80
2023-04-15T02:47:49.517Z,74.00
2023-04-15T02:50:52.056Z,73.80
2023-04-15T02:53:54.345Z,73.10
2023-04-15T02:56:56.457Z,73.40
2023-04-15T02:59:58.455Z,72.90
2023-04-15T03:03:04.014Z,73.20
2023-04-15T03:06:06.319Z,72.80
2023-04-15T03:09:08.705Z,73.20
2023-04-15T03:12:12.403Z,73.60
2023-04-15T03:15:15.784Z,73.90
2023-04-15T03:18:21.167Z,74.50
2023-04-15T03:21:25.349Z,74.20
2023-04-15T03:24:28.206Z,74.40
2023-04-15T03:27:31.450Z,74.60
2023-04-15T03:30:36.257Z,75.00
2023-04-15T03:33:38.315Z,75.10
2023-04-15T03:36:40.341Z,74.70
2023-04-15T03:39:42.285Z,75.20
2023-04-15T03:42:44.249Z,75.90
2023-04-15T03:45:48.717Z,75.30
2023-04-15T03:48:50.666Z,75.40
2023-04-15T03:51:52.636Z,75.60
2023-04-15T03:54:54.579Z,76.00
2023-04-15T03:57:56.542Z,77.60
2023-04-15T04:00:59.481Z,77.30
2023-04-15T04:04:01.765Z,77.50
2023-04-15T04:07:03.829Z,76.90
2023-04-15T04:10:06.707Z,76.40
2023-04-15T04:13:11.404Z,75.70
2023-04-15T04:16:13.682Z,74.80
2023-04-15T04:19:15.769Z,76.10
2023-04-15T04:22:17.772Z,76.50
2023-04-15T04:25:19.800Z,76.30
2023-04-15T04:28:21.854Z,76.20
2023-04-15T04:31:23.874Z,76.80
2023-04-15T04:34:25.865Z,76.30
2023-04-15T04:37:27.825Z,76.60
2023-04-15T04:40:30.160Z,77.80
2023-04-15T04:43:32.179Z,77.10
2023-04-15T04:46:34.454Z,76.80
2023-04-15T04:49:36.502Z,76.40
2023-04-15T04:52:39.227Z,76.40
2023-04-15T04:55:41.297Z,76.20
2023-04-15T04:58:43.393Z,76.40
2023-04-15T05:01:45.615Z,76.40
2023-04-15T05:04:47.908Z,76.30
2023-04-15T05:07:49.857Z,76.20
2023-04-15T05:10:52.101Z,77.40
2023-04-15T05:13:54.338Z,78.20
2023-04-15T05:16:56.594Z,78.00
2023-04-15T05:19:58.991Z,77.90
2023-04-15T05:23:01.310Z,77.50
2023-04-15T05:26:03.403Z,76.90
2023-04-15T05:29:05.654Z,76.70
2023-04-15T05:32:08.045Z,76.10
2023-04-15T05:35:10.462Z,76.30
2023-04-15T05:38:12.689Z,76.00
2023-04-15T05:41:14.694Z,76.90
2023-04-15T05:44:16.676Z,78.10
2023-04-15T05:47:18.716Z,77.30
2023-04-15T05:50:22.021Z,76.00
2023-04-15T05:53:23.991Z,76.60
2023-04-15T05:56:25.978Z,76.00
2023-04-15T05:59:27.986Z,75.00
2023-04-15T06:02:30.068Z,74.60
2023-04-15T06:05:32.037Z,73.90
2023-04-15T06:08:34.076Z,73.90
2023-04-15T06:11:36.188Z,72.90
2023-04-15T06:14:41.013Z,73.20
2023-04-15T06:17:43.091Z,72.40
2023-04-15T06:20:45.134Z,73.20
2023-04-15T06:23:47.216Z,72.20
2023-04-15T06:26:49.192Z,71.60
2023-04-15T06:29:51.166Z,70.00
2023-04-15T06:32:53.293Z,69.10
2023-04-15T06:35:55.244Z,68.50
2023-04-15T06:38:57.791Z,67.50
2023-04-15T06:41:59.851Z,66.00
2023-04-15T06:45:02.463Z,66.50
2023-04-15T06:48:04.820Z,66.10
2023-04-15T06:51:06.760Z,66.40
2023-04-15T06:54:08.756Z,67.80
2023-04-15T06:57:10.751Z,67.80
2023-04-15T07:00:13.311Z,68.20
2023-04-15T07:03:15.543Z,68.00
2023-04-15T07:06:18.163Z,67.20
2023-04-15T07:09:20.241Z,65.00
2023-04-15T07:12:22.689Z,63.30
2023-04-15T07:15:24.700Z,61.20
2023-04-15T07:18:26.672Z,59.50
2023-04-15T07:21:28.660Z,58.30
2023-04-15T07:24:30.732Z,58.20
2023-04-15T07:27:32.859Z,57.90
2023-04-15T07:30:35.262Z,56.80
2023-04-15T07:33:40.852Z,56.40
2023-04-15T07:36:45.955Z,56.20
2023-04-15T07:39:49.925Z,53.90
2023-04-15T07:42:53.722Z,54.10
2023-04-15T07:45:55.971Z,52.80
2023-04-15T07:48:58.004Z,53.00
2023-04-15T07:52:00.364Z,52.20
2023-04-15T07:55:02.425Z,51.90
2023-04-15T07:58:04.490Z,51.10
2023-04-15T08:01:06.481Z,50.90
2023-04-15T08:04:09.317Z,50.30
2023-04-15T08:07:11.536Z,49.10
2023-04-15T08:10:15.413Z,48.10
2023-04-15T08:13:17.507Z,46.70
2023-04-15T08:16:26.557Z,45.90
2023-04-15T08:19:28.715Z,46.80
2023-04-15T08:22:32.905Z,48.00
2023-04-15T08:25:34.913Z,49.40
2023-04-15T08:28:47.833Z,48.60
2023-04-15T08:31:50.129Z,46.50
2023-04-15T08:34:54.137Z,48.20
2023-04-15T08:37:56.140Z,48.00
2023-04-15T08:41:04.053Z,47.30
2023-04-15T08:44:06.639Z,47.50
2023-04-15T08:47:09.435Z,48.60
2023-04-15T08:50:12.558Z,46.60
2023-04-15T08:53:15.389Z,46.90
2023-04-15T08:56:18.916Z,46.80
2023-04-15T08:59:22.300Z,47.40
2023-04-15T09:02:25.627Z,45.40
2023-04-15T09:05:27.688Z,45.20
2023-04-15T09:08:29.621Z,45.70
2023-04-15T09:11:32.829Z,44.00
2023-04-15T09:14:35.040Z,45.70
2023-04-15T09:17:45.482Z,49.10
2023-04-15T09:20:47.921Z,48.80
2023-04-15T09:24:00.150Z,47.20
2023-04-15T09:27:02.514Z,46.70
2023-04-15T09:30:12.403Z,48.20
2023-04-15T09:33:15.364Z,49.40
2023-04-15T09:36:17.687Z,50.90
2023-04-15T09:39:19.677Z,50.80
2023-04-15T09:42:22.409Z,50.80
2023-04-15T09:45:28.820Z,51.20
2023-04-15T09:54:45.729Z,51.10
2023-04-15T09:57:47.928Z,50.40
2023-04-15T10:00:51.814Z,52.10
2023-04-15T10:03:57.189Z,50.40
2023-04-15T10:07:00.562Z,50.90
2023-04-15T10:10:05.910Z,50.30
2023-04-15T10:13:09.071Z,49.80
2023-04-15T10:16:12.626Z,50.80
2023-04-15T10:19:15.837Z,48.80
2023-04-15T10:22:18.451Z,50.10
2023-04-15T10:25:24.154Z,49.10
2023-04-15T10:28:27.241Z,48.60
2023-04-15T10:31:29.741Z,49.00
2023-04-15T10:34:32.929Z,47.80
2023-04-15T10:37:39.212Z,46.60
2023-04-15T10:40:41.310Z,46.10
2023-04-15T10:43:54.478Z,46.80
2023-04-15T10:46:59.073Z,45.30
2023-04-15T10:50:02.613Z,43.60
2023-04-15T11:03:38.182Z,41.20
2023-04-15T11:06:46.403Z,42.50
2023-04-15T11:09:48.525Z,41.60
2023-04-15T11:13:04.219Z,40.80
2023-04-15T11:16:06.357Z,41.30
2023-04-15T11:19:08.510Z,43.00
2023-04-15T11:22:11.408Z,43.50
2023-04-15T11:25:25.974Z,43.40
2023-04-15T11:28:29.596Z,42.50
2023-04-15T11:31:31.744Z,42.30
2023-04-15T11:34:35.626Z,42.70
2023-04-15T11:37:38.280Z,42.40
2023-04-15T11:40:41.137Z,43.20
2023-04-15T11:43:44.016Z,43.40
2023-04-15T11:46:46.043Z,41.30
2023-04-15T11:49:49.022Z,41.90
2023-04-15T11:52:58.431Z,41.00
2023-04-15T11:56:00.487Z,42.50
2023-04-15T11:59:02.700Z,43.20
2023-04-15T12:02:15.178Z,41.20
2023-04-15T12:05:17.543Z,40.90
2023-04-15T12:08:22.594Z,43.90
2023-04-15T12:11:30.724Z,44.30
2023-04-15T12:14:33.793Z,41.80
2023-04-15T12:17:51.479Z,42.40
2023-04-15T12:20:54.315Z,41.50
2023-04-15T12:23:56.795Z,42.10
2023-04-15T12:27:12.490Z,39.70
2023-04-15T12:30:15.002Z,39.40
2023-04-15T12:33:16.993Z,37.00
2023-04-15T12:36:18.984Z,37.60
2023-04-15T12:39:30.503Z,37.10
2023-04-15T12:42:32.958Z,36.70
2023-04-15T12:45:38.354Z,36.40
2023-04-15T12:48:41.738Z,36.20
2023-04-15T12:51:43.817Z,34.60
2023-04-15T12:54:45.819Z,36.40
2023-04-15T12:57:47.751Z,36.30
2023-04-15T13:00:49.960Z,37.60
2023-04-15T13:03:51.942Z,40.90
2023-04-15T13:06:54.071Z,39.60
2023-04-15T13:09:56.140Z,40.00
2023-04-15T13:12:58.505Z,41.00
2023-04-15T13:16:03.063Z,40.80
2023-04-15T13:19:11.904Z,41.70
2023-04-15T13:22:13.914Z,42.50
2023-04-15T13:25:15.931Z,43.40
2023-04-15T13:28:18.182Z,45.20
2023-04-15T13:31:20.203Z,43.80
2023-04-15T13:34:22.429Z,44.60
2023-04-15T13:37:28.474Z,45.10
2023-04-15T13:40:31.232Z,44.80
2023-04-15T13:43:33.201Z,45.10
2023-04-15T13:46:35.223Z,46.00
2023-04-15T13:49:37.198Z,45.30
2023-04-15T13:52:39.123Z,47.20
2023-04-15T13:55:41.188Z,47.20
2023-04-15T13:58:47.558Z,45.80
2023-04-15T14:01:49.791Z,46.10
2023-04-15T14:04:51.896Z,46.00
2023-04-15T14:07:54.074Z,47.40
2023-04-15T14:10:56.052Z,46.30
2023-04-15T14:13:58.363Z,47.10
2023-04-15T14:17:00.360Z,45.30
2023-04-15T14:20:02.628Z,46.70
2023-04-15T14:23:05.370Z,44.90
2023-04-15T14:26:08.190Z,45.50
2023-04-15T14:29:10.312Z,45.20
2023-04-15T14:32:12.934Z,45.60
2023-04-15T14:35:17.683Z,44.40
2023-04-15T14:38:19.826Z,43.30
2023-04-15T14:41:22.579Z,43.80
2023-04-15T14:44:24.667Z,43.90
2023-04-15T14:47:26.866Z,43.00
2023-04-15T14:50:29.190Z,45.30
2023-04-15T14:53:31.288Z,43.80
2023-04-15T14:56:34.169Z,43.50
2023-04-15T14:59:36.180Z,42.80
2023-04-15T15:02:40.522Z,41.90
2023-04-15T15:05:44.868Z,43.00
2023-04-15T15:08:49.481Z,42.30
2023-04-15T15:11:51.555Z,42.60
2023-04-15T15:14:56.120Z,42.40
2023-04-15T15:17:58.391Z,42.50
2023-04-15T15:21:00.415Z,42.80
2023-04-15T15:24:02.594Z,42.50
2023-04-15T15:27:04.700Z,43.30
2023-04-15T15:30:07.422Z,42.90
2023-04-15T15:33:09.746Z,44.80
2023-04-15T15:36:12.223Z,43.90
2023-04-15T15:39:14.392Z,44.50
2023-04-15T15:42:16.715Z,45.10
2023-04-15T15:45:18.921Z,45.10
2023-04-15T15:48:21.932Z,46.20
2023-04-15T15:51:24.188Z,47.70
2023-04-15T15:54:26.299Z,49.40
2023-04-15T15:57:28.331Z,51.80
2023-04-15T16:00:30.416Z,55.50
2023-04-15T16:03:32.626Z,57.10
2023-04-15T16:06:35.313Z,58.40
2023-04-15T16:09:37.664Z,59.50
2023-04-15T16:12:39.847Z,60.70
2023-04-15T16:15:41.912Z,60.80
2023-04-15T16:18:43.923Z,61.20
2023-04-15T16:21:45.951Z,61.50
2023-04-15T16:24:48.094Z,62.90
2023-04-15T16:28:00.725Z,65.00
2023-04-15T16:31:03.385Z,66.50
2023-04-15T16:34:05.886Z,67.80
2023-04-15T16:37:07.734Z,67.00
2023-04-15T16:40:10.444Z,67.10
2023-04-15T16:43:12.857Z,70.50
2023-04-15T16:46:15.052Z,70.20
2023-04-15T16:49:17.124Z,70.90
2023-04-15T16:52:19.129Z,74.00
2023-04-15T16:55:21.958Z,75.80
2023-04-15T16:58:23.909Z,74.90
2023-04-15T17:01:25.929Z,76.10
2023-04-15T17:04:28.868Z,76.10
2023-04-15T17:07:31.085Z,77.90
2023-04-15T17:10:33.161Z,77.20
2023-04-15T17:13:37.862Z,76.80
2023-04-15T17:16:40.244Z,78.50
2023-04-15T17:19:42.557Z,75.90
2023-04-15T17:22:45.502Z,77.40
2023-04-15T17:25:47.680Z,77.10
2023-04-15T17:28:49.940Z,78.10
2023-04-15T17:31:52.243Z,78.00
2023-04-15T17:34:54.410Z,79.40
2023-04-15T17:37:56.588Z,79.30
2023-04-15T17:40:58.758Z,79.50
2023-04-15T17:44:06.547Z,79.50
2023-04-15T17:47:08.902Z,80.50
2023-04-15T17:50:11.094Z,80.10
2023-04-15T17:53:13.358Z,79.90
2023-04-15T17:56:15.543Z,80.90
2023-04-15T17:59:19.244Z,80.00
2023-04-15T18:02:21.614Z,79.70
2023-04-15T18:05:23.931Z,80.30
2023-04-15T18:08:28.640Z,80.50
2023-04-15T18:11:32.384Z,80.40
2023-04-15T18:14:35.376Z,80.90
2023-04-15T18:17:37.723Z,81.60
2023-04-15T18:20:40.171Z,81.80
2023-04-15T18:23:42.468Z,80.50
2023-04-15T18:26:46.251Z,81.50
2023-04-15T18:29:51.234Z,80.60
2023-04-15T18:32:53.359Z,80.10
2023-04-15T18:35:57.182Z,80.70
2023-04-15T18:38:59.898Z,80.30
2023-04-15T18:42:02.037Z,80.30
2023-04-15T18:45:04.438Z,80.20
2023-04-15T18:48:06.805Z,80.20
2023-04-15T18:51:09.629Z,80.60
2023-04-15T18:54:18.739Z,80.90
2023-04-15T18:57:23.765Z,81.30
2023-04-15T19:00:34.460Z,81.50
2023-04-15T19:03:36.505Z,82.00
2023-04-15T19:06:38.746Z,81.90
2023-04-15T19:09:41.118Z,82.00
2023-04-15T19:12:44.017Z,82.00
2023-04-15T19:15:45.991Z,82.60
2023-04-15T19:18:48.014Z,83.00
2023-04-15T19:21:50.606Z,83.50
2023-04-15T19:24:52.790Z,83.70
2023-04-15T19:27:56.750Z,84.40
2023-04-15T19:31:00.387Z,83.60
2023-04-15T19:34:02.501Z,85.30
2023-04-15T19:37:04.624Z,85.60
2023-04-15T19:40:07.472Z,85.20
2023-04-15T19:43:10.104Z,84.70
2023-04-15T19:46:12.186Z,85.60
2023-04-15T19:49:14.697Z,84.90
2023-04-15T19:52:16.743Z,85.40
2023-04-15T19:55:19.065Z,84.80
2023-04-15T19:58:21.023Z,84.60
2023-04-15T20:01:23.370Z,84.20
2023-04-15T20:04:25.657Z,84.70
2023-04-15T20:07:28.008Z,84.50
2023-04-15T20:10:31.806Z,84.60
2023-04-15T20:13:34.214Z,84.90
2023-04-15T20:16:36.256Z,85.60
2023-04-15T20:19:38.367Z,84.20
2023-04-15T20:22:40.409Z,85.90
2023-04-15T20:25:42.535Z,85.40
2023-04-15T20:28:44.583Z,84.90
2023-04-15T20:31:47.094Z,86.30
2023-04-15T20:34:49.053Z,86.70
2023-04-15T20:37:50.967Z,85.90
2023-04-15T20:40:52.902Z,85.70
2023-04-15T20:43:55.068Z,85.40
2023-04-15T20:46:57.378Z,85.30
2023-04-15T20:49:59.395Z,85.70
2023-04-15T20:53:01.421Z,85.30
2023-04-15T20:56:03.582Z,85.50
2023-04-15T20:59:05.984Z,85.90
2023-04-15T21:02:08.143Z,86.00
2023-04-15T21:05:10.560Z,86.60
2023-04-15T21:08:12.506Z,86.70
2023-04-15T21:11:24.301Z,86.50
2023-04-15T21:14:37.023Z,86.30
2023-04-15T21:17:39.394Z,86.50
2023-04-15T21:20:41.391Z,85.80
2023-04-15T21:23:43.363Z,86.50
2023-04-15T21:26:45.389Z,85.90
2023-04-15T21:29:47.337Z,86.20
2023-04-15T21:32:49.455Z,85.50
2023-04-15T21:35:52.923Z,85.70
2023-04-15T21:38:55.026Z,86.20
2023-04-15T21:41:57.143Z,85.90
2023-04-15T21:44:59.439Z,86.10
2023-04-15T21:48:07.818Z,85.50
2023-04-15T21:51:10.901Z,86.20
2023-04-15T21:54:12.897Z,85.00
2023-04-15T21:57:14.886Z,86.20
2023-04-15T22:00:17.128Z,86.10
2023-04-15T22:03:19.240Z,86.80
2023-04-15T22:06:21.570Z,86.10
2023-04-15T22:09:23.562Z,86.40
2023-04-15T22:12:25.593Z,86.60
2023-04-15T22:15:28.081Z,86.80
2023-04-15T22:18:30.105Z,86.30
2023-04-15T22:21:32.180Z,87.00
2023-04-15T22:24:40.352Z,86.40
2023-04-15T22:27:43.132Z,87.20
2023-04-15T22:30:51.929Z,86.50
2023-04-15T22:33:54.119Z,86.90
2023-04-15T22:36:56.257Z,87.00
2023-04-15T22:39:58.514Z,86.90
2023-04-15T22:43:00.470Z,86.90
2023-04-15T22:46:02.564Z,87.20
2023-04-15T22:49:07.953Z,86.70
2023-04-15T22:52:17.202Z,87.30
2023-04-15T22:55:28.149Z,87.00
2023-04-15T23:01:39.300Z,87.00
2023-04-15T23:04:41.478Z,87.00
2023-04-15T23:07:43.667Z,87.40
2023-04-15T23:10:45.701Z,87.10
2023-04-15T23:13:47.715Z,87.30
2023-04-15T23:16:49.818Z,87.50
2023-04-15T23:19:51.755Z,86.80
2023-04-15T23:22:53.742Z,87.50
2023-04-15T23:25:55.665Z,87.30
2023-04-15T23:28:57.855Z,87.10
2023-04-15T23:32:00.084Z,86.00
2023-04-15T23:35:05.038Z,85.90
2023-04-15T23:38:07.037Z,85.30
2023-04-15T23:41:09.024Z,85.40
2023-04-15T23:44:10.994Z,85.90
2023-04-15T23:47:13.072Z,86.60
2023-04-15T23:50:15.060Z,85.10
2023-04-15T23:53:18.287Z,84.90
2023-04-15T23:56:20.429Z,86.50
2023-04-15T23:59:22.434Z,85.20
